Tropical Cyclones
[Index]
Main Index Home Page Stock Weather Photos Extreme Storms Discussion Storm News and Storm Chasing Reports Tropical Cyclones / Hurricanes / Typhoons Weather Data and Links Wild Fires / Bushfires Weather Observation Techniques Weather Picture Catalogue Tornado Pictures and Reports Stock Video Footage and DVDs for sale
Season 2007-2008 Tropical Cyclone FAME Track Map
Season 2007-2008 Summaries (Operational Data): [AU] [SIO] [SPAC] [SH]
<<- Previous TC | 2007-2008 Season | Next TC ->>

click for intensity scale information  Lat/long Grid: Show Hide

 Date Labels: Show Hide

Operational Tropical Cyclone Data : JTWC Advisories

Name: FAME
Number: 0813

24 Jan 2008 06:00 UTC to 01 Feb 2008 12:00 UTC

    date/time    lat    long     hPa   cat  kts
2008-01-24 06   13.5    45.6    1004         25          
2008-01-24 12   13.8    45.1    1002         25          
2008-01-24 18   13.9    44.9    1002         25          
2008-01-25 00   13.9    44.3    1002         25          
2008-01-25 06   14.1    44.8    1002         25          
2008-01-25 12   14.1    44.7     999         30          
2008-01-25 18   14.1    44.7     993    1    35          
2008-01-26 00   14.1    44.7     990    1    40          
2008-01-26 06   13.8    44.8     987    1    45          
2008-01-26 12   14.1    44.7     982    2    55          
2008-01-26 18   14.3    44.8     982    2    55          
2008-01-27 00   15.1    44.4     982    2    55          
2008-01-27 06   15.4    44.4     976    2    60          
2008-01-27 12   16.2    44.3     972    2    60          
2008-01-27 18   17.1    44.4            2    50          
2008-01-28 00   17.5    45.0            1    40          
2008-01-28 06   18.1    46.5                 25          
2008-01-28 12   19.0    47.0                 20          
2008-01-29 00   19.9    49.0                 20          
2008-01-29 06   19.6    51.2    1000         25          
2008-01-29 12   20.3    52.0     997         30          
2008-01-29 18   21.3    52.8     997         30          
2008-01-30 00   21.1    52.4     997         30          
2008-01-30 06   21.3    52.4     997         30          
2008-01-30 12   21.4    53.1     997         30          
2008-01-30 18   21.5    53.3     997         30          
2008-01-31 00   21.6    53.7     997         30          
2008-01-31 06   22.3    53.4     997         30          
2008-01-31 12   22.7    52.0     999         30          
2008-01-31 18   21.5    52.5     999         30          
2008-02-01 00   21.6    54.8     990         30          
2008-02-01 06   23.4    56.0     996         30          
2008-02-01 12   24.8    57.8     998         30          
Winds are 10-min average.

Tropical cyclone tracks developed by Michael Bath using operational warnings and advisories and Google Maps.


[Australian Severe Weather index] [Copyright Notice] [Email Contacts] [Search This Site] [Privacy Policy]
Document: tropical_cyclone_fame.htm Updated: 2 May 2017